Relevés horaires Schaffen (Belgique)


Relevés horaires à Schaffen - Mardi 18 Févr. 2020
Heure UTC1 Température [°C] Vent [km/h] Hum. [%] Pres.4 [hPa] Visi. [Km] Nébu. [octa] Préc.5 [mm] Cond.
2m. Res. Ros. Dir.2 Vit. Moy. Raf.3
23:00 7.5 5.4 3.2 SSO 11.1 -- 20.4 74 1015.3(-3.8/3h) 20 -- -- NA
22:00 7.5 5.4 2.9 SSO 11.1 -- 20.4 73 1017.2(-2.9/3h) 20 -- -- Il y a de la pluie faible et continue à la station au moment de l'observation
21:00 7.2 5.4 3.4 SSO 9.3 -- 22.2 77 1018.6(-2.4/3h) 20 -- -- Il y a de la pluie faible et continue à la station au moment de l'observation
20:00 7.4 5.7 2.8 SSO 9.3 -- 16.7 73 1019.2(-1.7/3h) 20 -- -- --
19:00 6.8 5 2.8 SSO 9.3 -- 14.8 76 1020.2(-1.2/3h) 20 -- -- --
18:00 7.3 6 2.7 SSO 7.4 -- 24.1 73 1021(-1.2/3h) 20 -- -- NA
17:00 8.0 6.8 2.4 SO 7.4 -- 18.5 68 1021(-1.3/3h) 20 -- -- --
16:00 8.6 7.1 2.2 SO 9.3 -- 22.2 64 1021.5(-1.1/3h) 20 -- -- NA
15:00 8.8 7 2.3 SO 11.1 -- 24.1 64 1022.2(-0.9/3h) 20 -- -- --
14:00 8.7 6.9 2.3 OSO 11.1 -- 24.1 64 1022.3(-1.0/3h) 20 -- -- --
13:00 8.5 6.3 2.3 OSO 13.0 -- 20.4 65 1022.7(-0.7/3h) 20 -- -- --
12:00 7.6 5.6 2.9 SO 11.1 -- 22.2 72 1023.2(-0.2/3h) 20 -- -- --
11:00 7.7 5.7 3.0 SO 11.1 -- 22.2 72 1023.5(0.3/3h) 20 -- -- --
10:00 7.3 5.5 2.9 SO 9.3 -- 22.2 74 1023.3(0.8/3h) 20 -- -- --
09:00 6.3 4.4 2.7 SO 9.3 -- 16.7 78 1023.5(1.2/3h) 20 -- -- --
08:00 5.8 4.2 2.5 SO 7.4 -- 16.7 79 1023.2(1.4/3h) 19 -- -- --
07:00 5.6 4 2.6 SO 7.4 -- 16.7 81 1022.6(1.1/3h) 19 -- -- --
06:00 5.7 4.1 2.6 SO 7.4 -- 24.1 80 1022.1(1.2/3h) 20 -- -- --
05:00 5.9 3.5 2.2 OSO 11.1 -- 18.5 77 1021.7(1.1/3h) 20 -- -- --
04:00 5.9 4.3 2.5 SO 7.4 -- 24.1 79 1021.3(1.4/3h) 20 -- -- --
03:00 6.4 4.1 2.2 OSO 11.1 -- 24.1 74 1020.8(1.6/3h) 20 -- -- --
02:00 6.6 4.7 2.7 OSO 9.3 -- 24.1 76 1020.6(2.2/3h) 20 -- -- --
01:00 7.1 5.3 3.1 SO 9.3 -- 24.1 76 1019.8(2.2/3h) 20 -- -- --
00:00 7.5 5.1 3.1 OSO 13.0 -- 25.9 74 1019.2(2.2/3h) 20 -- -- --

1 Coordinated Universal Time. Actuellement il est 02:00 locale et 01:00 UTC.

2 Le vent souffle depuis la direction indiquée vers la direction oposée.

3 Les rafales max. sont disponible 40 min après l'heure du relevé.

4 Pour les stations d'altitude (plus de 600m) le géopotentiel du niveau le plus proche de la pression obligatoire est indiqué.

5 Les stations disposant d'un diffuseur peuvent indiquer "trace". Cela signifie que des précipitations ont touchés le sol mais que la quantité est inférieure à 0.1 mm.

Récapitulatif de la journée
Température [°C] Vent [km/h] Ensoleillement4 [h] Precipitations totale5 [mm] Pression [Hpa]
Min1 Max.2 Moy.3 Max. Min Max.
5.3 9.3 0 25.9 0 h 0 min 0 1015.3 1023.5

1 Température minimale relevée entre 18:00 UTC la veille et 18:00 UTC le jour donné.

2 Température maximale relevée entre 06:00 UTC le jour donné et 06:00 UTC le lendemain.

3 Vent moyen de la journée basé sur les relevés horaires.

4 Ensoleillement en heures relevé entre 06:00 UTC la veille et 06:00 UTC le jour donné.

5 Précipitations totales tombées entre 06:00 UTC la jour donné et 06:00 UTC le lendemain.

Graphiques horaires